Time;durP1;ratioP1;P1;durP2;ratioP2;P2;SDS_P1;SDS_P2;PMS_P1;PMS_P2;Temp;Humidity;BMP_temperature;BMP_pressure;BME280_temperature;BME280_humidity;BME280_pressure;Samples;Min_cycle;Max_cycle;Signal;HPM_P1;HPM_P2
2023/06/24 00:00:37;;;;;;;13.63;11.55;;;;;;;;;;5112010;28;20048;-80
2023/06/24 00:03:07;;;;;;;12.05;10.63;;;;;;;;;;5112906;28;20533;-80
2023/06/24 00:05:35;;;;;;;12.80;11.18;;;;;;;;;;5112889;28;20043;-80
2023/06/24 00:08:02;;;;;;;13.40;12.00;;;;;;;;;;5112986;28;20141;-80
2023/06/24 00:10:31;;;;;;;16.60;11.98;;;;;;;;;;5112663;28;20051;-80
2023/06/24 00:13:01;;;;;;;17.33;13.52;;;;;;;;;;5111705;28;20047;-80
2023/06/24 00:15:28;;;;;;;15.35;12.40;;;;;;;;;;5111653;28;20083;-80
2023/06/24 00:18:04;;;;;;;14.18;11.85;;;;;;;;;;5111707;28;20050;-80
2023/06/24 00:20:32;;;;;;;20.38;12.30;;;;;;;;;;5112830;28;20052;-80
2023/06/24 00:23:00;;;;;;;17.05;11.63;;;;;;;;;;5113076;28;20385;-80
2023/06/24 00:25:27;;;;;;;16.33;12.02;;;;;;;;;;5114154;28;20040;-80
2023/06/24 00:27:55;;;;;;;15.45;13.48;;;;;;;;;;5116837;28;20054;-80
2023/06/24 00:30:23;;;;;;;16.65;13.48;;;;;;;;;;5116556;27;20104;-80
2023/06/24 00:32:50;;;;;;;13.15;11.32;;;;;;;;;;5116165;28;20108;-80
2023/06/24 00:35:18;;;;;;;18.20;13.38;;;;;;;;;;5116586;28;20048;-80
2023/06/24 00:37:46;;;;;;;21.60;15.20;;;;;;;;;;5116317;28;20051;-80
2023/06/24 00:40:15;;;;;;;19.13;13.82;;;;;;;;;;5116224;28;20065;-80
2023/06/24 00:42:47;;;;;;;15.70;12.98;;;;;;;;;;5116290;28;20047;-81
2023/06/24 00:45:16;;;;;;;20.58;13.23;;;;;;;;;;5116202;28;20112;-80
2023/06/24 00:47:43;;;;;;;12.82;11.60;;;;;;;;;;5116241;28;20051;-80
2023/06/24 00:50:14;;;;;;;13.98;11.20;;;;;;;;;;5116098;28;20478;-80
2023/06/24 00:52:42;;;;;;;15.02;11.73;;;;;;;;;;5114876;28;20109;-81
2023/06/24 00:55:14;;;;;;;17.70;11.25;;;;;;;;;;5116086;28;20083;-81
2023/06/24 00:57:45;;;;;;;12.65;11.00;;;;;;;;;;5115049;28;20105;-81
2023/06/24 01:00:15;;;;;;;16.52;10.50;;;;;;;;;;5114846;28;20065;-81
2023/06/24 01:02:43;;;;;;;12.82;10.98;;;;;;;;;;5116161;28;20040;-81
2023/06/24 01:05:11;;;;;;;13.57;10.80;;;;;;;;;;5115811;28;20048;-81
2023/06/24 01:07:39;;;;;;;12.32;11.00;;;;;;;;;;5115744;28;20044;-81
2023/06/24 01:10:06;;;;;;;12.38;11.07;;;;;;;;;;5115850;28;20074;-80
2023/06/24 01:12:34;;;;;;;18.70;13.68;;;;;;;;;;5115663;28;20442;-81
2023/06/24 01:15:02;;;;;;;12.88;11.63;;;;;;;;;;5115737;28;20044;-81
2023/06/24 01:17:36;;;;;;;13.23;11.98;;;;;;;;;;5115865;28;20537;-81
2023/06/24 01:20:10;;;;;;;13.15;11.85;;;;;;;;;;5115645;28;20086;-81
2023/06/24 01:23:13;;;;;;;17.80;13.18;;;;;;;;;;5115573;27;20404;-81
2023/06/24 01:25:55;;;;;;;18.83;13.88;;;;;;;;;;5056008;28;20143;-81
2023/06/24 01:28:42;;;;;;;18.27;12.70;;;;;;;;;;5108838;28;20095;-81
2023/06/24 01:31:18;;;;;;;15.75;13.32;;;;;;;;;;5115309;28;20463;-81
2023/06/24 01:33:45;;;;;;;19.92;14.15;;;;;;;;;;5114001;28;20072;-81
2023/06/24 01:36:16;;;;;;;18.10;13.18;;;;;;;;;;5115211;28;20043;-80
2023/06/24 01:38:53;;;;;;;13.85;12.30;;;;;;;;;;5113598;28;20055;-81
2023/06/24 01:41:22;;;;;;;13.23;11.77;;;;;;;;;;5114071;28;20051;-81
2023/06/24 01:43:51;;;;;;;13.63;12.32;;;;;;;;;;5115053;28;20047;-81
2023/06/24 01:46:21;;;;;;;12.88;10.90;;;;;;;;;;5115024;27;20051;-81
2023/06/24 01:48:51;;;;;;;15.73;11.45;;;;;;;;;;5115021;28;20471;-81
2023/06/24 01:51:20;;;;;;;12.30;10.48;;;;;;;;;;5114975;28;20048;-81
2023/06/24 01:53:52;;;;;;;11.32;10.23;;;;;;;;;;5113795;28;20067;-81
2023/06/24 01:56:21;;;;;;;11.52;10.32;;;;;;;;;;5114926;28;20054;-81
2023/06/24 01:58:49;;;;;;;11.68;10.57;;;;;;;;;;5114758;28;20047;-80
2023/06/24 02:01:16;;;;;;;14.63;11.18;;;;;;;;;;5113573;28;20044;-80
2023/06/24 02:03:44;;;;;;;14.40;10.80;;;;;;;;;;5114620;28;20044;-80
2023/06/24 02:06:12;;;;;;;12.20;10.45;;;;;;;;;;5113445;28;20458;-80
2023/06/24 02:08:41;;;;;;;11.45;10.40;;;;;;;;;;5114571;28;20100;-80
2023/06/24 02:11:09;;;;;;;11.88;10.57;;;;;;;;;;5113623;28;20101;-81
2023/06/24 02:13:37;;;;;;;13.00;11.80;;;;;;;;;;5113345;28;20097;-81
2023/06/24 02:16:07;;;;;;;12.68;11.48;;;;;;;;;;5113380;28;20044;-81
2023/06/24 02:18:42;;;;;;;12.40;11.27;;;;;;;;;;5114338;28;20096;-80
2023/06/24 02:21:09;;;;;;;15.32;12.10;;;;;;;;;;5113249;28;20059;-80
2023/06/24 02:23:37;;;;;;;15.88;11.88;;;;;;;;;;5114317;28;20047;-81
2023/06/24 02:26:06;;;;;;;12.77;11.45;;;;;;;;;;5114248;28;20048;-81
2023/06/24 02:28:34;;;;;;;16.20;13.30;;;;;;;;;;5114131;28;20051;-81
2023/06/24 02:31:02;;;;;;;14.80;12.10;;;;;;;;;;5114216;28;20067;-80
2023/06/24 02:33:29;;;;;;;14.35;12.60;;;;;;;;;;5112721;28;20061;-81
2023/06/24 02:35:56;;;;;;;15.93;13.27;;;;;;;;;;5113423;28;20112;-81
2023/06/24 02:38:23;;;;;;;15.48;13.52;;;;;;;;;;5112679;28;20047;-81
2023/06/24 02:40:54;;;;;;;20.08;15.48;;;;;;;;;;5113008;28;20055;-81
2023/06/24 02:43:21;;;;;;;16.58;13.98;;;;;;;;;;5112876;28;20043;-81
2023/06/24 02:45:49;;;;;;;17.45;13.15;;;;;;;;;;5113760;28;20044;-81
2023/06/24 02:48:16;;;;;;;15.10;13.60;;;;;;;;;;5112358;28;20497;-81
2023/06/24 02:50:44;;;;;;;17.20;14.70;;;;;;;;;;5112249;28;20051;-81
2023/06/24 02:53:12;;;;;;;17.75;13.48;;;;;;;;;;5113876;28;20121;-81
2023/06/24 02:55:41;;;;;;;16.33;14.65;;;;;;;;;;5113651;28;20051;-81
2023/06/24 02:58:08;;;;;;;19.30;14.57;;;;;;;;;;5112483;28;20052;-81
2023/06/24 03:00:36;;;;;;;16.55;14.13;;;;;;;;;;5113639;28;20086;-81
2023/06/24 03:03:04;;;;;;;16.48;14.68;;;;;;;;;;5112364;28;20043;-81
2023/06/24 03:05:33;;;;;;;16.75;14.45;;;;;;;;;;5113502;28;20090;-81
2023/06/24 03:08:03;;;;;;;17.27;14.60;;;;;;;;;;5113742;28;20086;-81
2023/06/24 03:10:30;;;;;;;21.08;16.45;;;;;;;;;;5113558;28;20054;-81
2023/06/24 03:12:58;;;;;;;18.60;15.43;;;;;;;;;;5113460;28;20051;-81
2023/06/24 03:15:25;;;;;;;19.98;15.98;;;;;;;;;;5112313;28;20407;-82
2023/06/24 03:17:54;;;;;;;16.15;14.48;;;;;;;;;;5112359;28;20047;-81
2023/06/24 03:20:21;;;;;;;15.55;14.05;;;;;;;;;;5113579;28;20086;-82
2023/06/24 03:22:48;;;;;;;17.92;14.35;;;;;;;;;;5112445;28;20109;-81
2023/06/24 03:25:16;;;;;;;21.23;15.85;;;;;;;;;;5112088;28;20446;-81
2023/06/24 03:27:43;;;;;;;18.90;15.43;;;;;;;;;;5113183;28;20385;-81
2023/06/24 03:30:14;;;;;;;18.05;14.30;;;;;;;;;;5113343;28;20039;-82
2023/06/24 03:32:46;;;;;;;18.30;15.00;;;;;;;;;;5112943;28;20055;-81
2023/06/24 03:35:14;;;;;;;15.70;13.82;;;;;;;;;;5113286;28;20098;-82
2023/06/24 03:37:41;;;;;;;16.25;14.55;;;;;;;;;;5113019;28;20048;-82
2023/06/24 03:40:09;;;;;;;14.15;12.65;;;;;;;;;;5113238;28;20051;-81
2023/06/24 03:42:36;;;;;;;13.82;12.52;;;;;;;;;;5111977;28;20499;-82
2023/06/24 03:45:04;;;;;;;15.85;14.15;;;;;;;;;;5112015;28;20048;-82
2023/06/24 03:47:31;;;;;;;15.45;13.82;;;;;;;;;;5111753;28;20052;-82
2023/06/24 03:49:58;;;;;;;18.10;13.18;;;;;;;;;;5111855;28;20504;-82
2023/06/24 03:52:26;;;;;;;15.73;14.10;;;;;;;;;;5111940;28;20054;-82
2023/06/24 03:54:53;;;;;;;20.20;15.82;;;;;;;;;;5111903;28;20051;-82
2023/06/24 03:57:20;;;;;;;20.40;15.00;;;;;;;;;;5111770;28;20043;-81
2023/06/24 03:59:48;;;;;;;15.38;13.77;;;;;;;;;;5113474;28;20050;-82
2023/06/24 04:02:15;;;;;;;17.52;14.60;;;;;;;;;;5117208;28;20127;-82
2023/06/24 04:04:42;;;;;;;14.95;13.35;;;;;;;;;;5117200;28;20047;-82
2023/06/24 04:07:09;;;;;;;15.15;13.63;;;;;;;;;;5116887;28;20122;-82
2023/06/24 04:09:37;;;;;;;15.20;13.63;;;;;;;;;;5116915;28;20043;-82
2023/06/24 04:12:04;;;;;;;15.55;14.00;;;;;;;;;;5116946;28;20046;-82
2023/06/24 04:14:31;;;;;;;16.42;14.73;;;;;;;;;;5117127;28;20052;-82
2023/06/24 04:16:59;;;;;;;15.32;13.77;;;;;;;;;;5116877;28;20120;-82
2023/06/24 04:19:26;;;;;;;18.50;13.45;;;;;;;;;;5116585;28;20044;-81
2023/06/24 04:21:53;;;;;;;15.25;12.40;;;;;;;;;;5116757;28;20100;-82
2023/06/24 04:24:20;;;;;;;15.07;13.52;;;;;;;;;;5116684;28;20146;-82
2023/06/24 04:26:47;;;;;;;17.75;13.75;;;;;;;;;;5116492;28;20449;-81
2023/06/24 04:29:15;;;;;;;16.63;13.88;;;;;;;;;;5115442;28;20043;-81
2023/06/24 04:31:42;;;;;;;16.38;12.57;;;;;;;;;;5115280;28;20472;-82
2023/06/24 04:34:09;;;;;;;12.73;11.40;;;;;;;;;;5116646;28;20043;-82
2023/06/24 04:36:37;;;;;;;14.63;12.75;;;;;;;;;;5116482;28;20043;-81
2023/06/24 04:39:04;;;;;;;13.75;12.45;;;;;;;;;;5116608;27;20047;-82
2023/06/24 04:41:32;;;;;;;12.20;11.10;;;;;;;;;;5116346;28;20048;-82
2023/06/24 04:43:59;;;;;;;12.57;11.38;;;;;;;;;;5116458;28;20075;-82
2023/06/24 04:46:26;;;;;;;10.45;9.45;;;;;;;;;;5116326;28;20047;-82
2023/06/24 04:48:53;;;;;;;10.85;9.85;;;;;;;;;;5115458;28;20095;-82
2023/06/24 04:51:21;;;;;;;13.57;12.15;;;;;;;;;;5116436;28;20089;-81
2023/06/24 04:53:48;;;;;;;13.52;12.23;;;;;;;;;;5115238;28;20130;-81
2023/06/24 04:56:15;;;;;;;17.38;11.45;;;;;;;;;;5115189;28;20043;-82
2023/06/24 04:58:42;;;;;;;33.85;12.35;;;;;;;;;;5115220;28;20096;-82
2023/06/24 05:01:10;;;;;;;19.25;11.73;;;;;;;;;;5115089;28;20397;-82
2023/06/24 05:03:37;;;;;;;12.07;10.98;;;;;;;;;;5116443;28;20199;-82
2023/06/24 05:06:04;;;;;;;11.85;10.55;;;;;;;;;;5116383;28;20097;-82
2023/06/24 05:08:32;;;;;;;10.32;9.38;;;;;;;;;;5116036;28;20051;-82
2023/06/24 05:10:59;;;;;;;11.98;9.65;;;;;;;;;;5116050;28;20083;-82
2023/06/24 05:13:27;;;;;;;9.45;8.55;;;;;;;;;;5115112;28;20545;-82
2023/06/24 05:15:55;;;;;;;15.65;10.40;;;;;;;;;;5116061;28;20071;-82
2023/06/24 05:18:22;;;;;;;12.27;9.73;;;;;;;;;;5115965;27;20572;-82
2023/06/24 05:20:49;;;;;;;10.43;9.50;;;;;;;;;;5114839;28;20129;-82
2023/06/24 05:23:16;;;;;;;10.30;9.38;;;;;;;;;;5115825;28;20052;-82
2023/06/24 05:25:44;;;;;;;8.88;8.18;;;;;;;;;;5115657;28;20047;-82
2023/06/24 05:28:11;;;;;;;39.80;9.63;;;;;;;;;;5115613;28;20108;-83
2023/06/24 05:30:39;;;;;;;19.13;9.13;;;;;;;;;;5114599;28;20443;-82
2023/06/24 05:33:06;;;;;;;8.55;7.85;;;;;;;;;;5114454;28;20074;-82
2023/06/24 05:35:39;;;;;;;8.63;7.82;;;;;;;;;;5115510;28;20083;-83
2023/06/24 05:38:07;;;;;;;14.75;9.05;;;;;;;;;;5114379;28;20105;-83
2023/06/24 05:40:34;;;;;;;9.40;8.60;;;;;;;;;;5114397;28;20047;-82
2023/06/24 05:43:02;;;;;;;8.15;7.45;;;;;;;;;;5115580;28;20096;-82
2023/06/24 05:45:30;;;;;;;8.93;8.02;;;;;;;;;;5115362;28;20491;-82
2023/06/24 05:47:57;;;;;;;8.35;7.55;;;;;;;;;;5115330;28;20051;-83
2023/06/24 05:50:24;;;;;;;8.38;7.68;;;;;;;;;;5115462;28;20411;-83
2023/06/24 05:52:51;;;;;;;7.78;6.97;;;;;;;;;;5115379;28;20048;-83
2023/06/24 05:55:18;;;;;;;9.30;7.45;;;;;;;;;;5115357;28;20047;-83
2023/06/24 05:57:46;;;;;;;10.35;6.35;;;;;;;;;;5114249;28;20101;-83
2023/06/24 06:00:13;;;;;;;7.10;6.60;;;;;;;;;;5115181;27;20090;-83
2023/06/24 06:02:41;;;;;;;7.22;5.72;;;;;;;;;;5114029;28;20052;-84
2023/06/24 06:05:08;;;;;;;6.88;6.38;;;;;;;;;;5114233;28;20127;-83
2023/06/24 06:07:38;;;;;;;6.28;5.85;;;;;;;;;;5113678;28;20044;-83
2023/06/24 06:10:06;;;;;;;6.15;5.65;;;;;;;;;;5115142;28;20051;-84
2023/06/24 06:12:33;;;;;;;6.15;5.30;;;;;;;;;;5114876;28;20514;-83
2023/06/24 06:15:01;;;;;;;6.75;5.70;;;;;;;;;;5113915;28;20048;-84
2023/06/24 06:17:28;;;;;;;5.40;4.97;;;;;;;;;;5113834;28;20043;-84
2023/06/24 06:19:55;;;;;;;4.40;4.07;;;;;;;;;;5113769;28;20056;-84
2023/06/24 06:22:22;;;;;;;6.00;5.40;;;;;;;;;;5115200;28;20083;-85
2023/06/24 06:24:49;;;;;;;6.20;5.70;;;;;;;;;;5114346;28;20075;-86
2023/06/24 06:27:17;;;;;;;5.65;5.15;;;;;;;;;;5114078;28;20054;-85
2023/06/24 06:29:44;;;;;;;4.90;4.57;;;;;;;;;;5116910;28;20055;-85
2023/06/24 06:32:11;;;;;;;5.20;4.70;;;;;;;;;;5114040;28;20066;-85
2023/06/24 06:34:38;;;;;;;4.07;3.78;;;;;;;;;;5113808;28;20148;-84
2023/06/24 06:37:06;;;;;;;4.70;4.40;;;;;;;;;;5113601;28;20112;-85
2023/06/24 06:39:33;;;;;;;4.32;4.03;;;;;;;;;;5114990;28;20074;-86
2023/06/24 06:42:00;;;;;;;4.15;3.95;;;;;;;;;;5114454;28;20578;-86
2023/06/24 06:44:27;;;;;;;4.78;4.40;;;;;;;;;;5114485;28;20082;-85
2023/06/24 06:46:55;;;;;;;3.95;3.75;;;;;;;;;;5115085;28;20051;-85
2023/06/24 06:49:22;;;;;;;6.05;3.97;;;;;;;;;;5114548;28;20476;-87
2023/06/24 06:51:49;;;;;;;4.05;3.80;;;;;;;;;;5113906;28;20043;-86
2023/06/24 06:54:16;;;;;;;3.78;3.53;;;;;;;;;;5114201;28;20120;-85
2023/06/24 06:56:43;;;;;;;3.53;3.28;;;;;;;;;;5114295;28;20096;-86
2023/06/24 06:59:11;;;;;;;3.03;2.83;;;;;;;;;;5113788;28;20079;-85
2023/06/24 07:01:38;;;;;;;3.58;2.40;;;;;;;;;;5114785;28;20048;-86
2023/06/24 07:04:05;;;;;;;2.78;2.67;;;;;;;;;;5113436;28;20134;-85
2023/06/24 07:06:33;;;;;;;3.70;2.40;;;;;;;;;;5113430;28;20097;-86
2023/06/24 07:09:01;;;;;;;2.20;2.10;;;;;;;;;;5113910;28;20078;-87
2023/06/24 07:11:28;;;;;;;2.75;2.65;;;;;;;;;;5115066;28;20039;-86
2023/06/24 07:13:55;;;;;;;2.83;2.63;;;;;;;;;;5113710;28;20052;-86
2023/06/24 07:16:22;;;;;;;3.05;2.85;;;;;;;;;;5114323;28;20074;-85
2023/06/24 07:18:50;;;;;;;3.10;2.90;;;;;;;;;;5114810;28;20073;-85
2023/06/24 07:21:17;;;;;;;2.97;2.78;;;;;;;;;;5113165;28;20039;-85
2023/06/24 07:23:44;;;;;;;4.60;3.60;;;;;;;;;;5113229;28;20083;-85
2023/06/24 07:26:11;;;;;;;2.97;2.78;;;;;;;;;;5113032;28;20100;-84
2023/06/24 07:28:39;;;;;;;2.92;2.72;;;;;;;;;;5113835;28;20632;-85
2023/06/24 07:31:06;;;;;;;4.78;2.83;;;;;;;;;;5113144;28;20043;-85
2023/06/24 07:33:33;;;;;;;2.95;2.75;;;;;;;;;;5112549;28;20396;-85
2023/06/24 07:36:01;;;;;;;3.28;2.80;;;;;;;;;;5112598;28;20044;-84
2023/06/24 07:38:31;;;;;;;2.75;2.53;;;;;;;;;;5113799;28;20079;-85
2023/06/24 07:40:58;;;;;;;5.65;2.50;;;;;;;;;;5113839;28;20047;-83
2023/06/24 07:43:25;;;;;;;3.13;2.33;;;;;;;;;;5114032;28;20472;-81
2023/06/24 07:45:52;;;;;;;2.78;2.00;;;;;;;;;;5112802;28;20083;-81
2023/06/24 07:48:19;;;;;;;2.30;2.10;;;;;;;;;;5112412;28;20083;-81
2023/06/24 07:50:47;;;;;;;2.22;2.00;;;;;;;;;;5112439;28;20441;-81
2023/06/24 07:53:14;;;;;;;2.92;2.35;;;;;;;;;;5110814;28;20088;-81
2023/06/24 07:55:41;;;;;;;4.10;2.22;;;;;;;;;;5111248;28;20075;-85
2023/06/24 07:58:08;;;;;;;3.00;2.05;;;;;;;;;;5113033;28;20062;-83
2023/06/24 08:00:36;;;;;;;2.30;2.10;;;;;;;;;;5112128;28;20051;-82
2023/06/24 08:03:05;;;;;;;1.85;1.75;;;;;;;;;;5111534;28;20048;-82
2023/06/24 08:05:33;;;;;;;3.20;1.70;;;;;;;;;;5111347;28;20510;-82
2023/06/24 08:08:01;;;;;;;2.00;1.88;;;;;;;;;;5112141;28;20480;-85
2023/06/24 08:10:28;;;;;;;5.78;2.05;;;;;;;;;;5112098;28;20048;-81
2023/06/24 08:12:55;;;;;;;1.98;1.85;;;;;;;;;;5113194;28;20051;-82
2023/06/24 08:15:23;;;;;;;2.20;1.80;;;;;;;;;;5111951;28;20048;-81
2023/06/24 08:17:53;;;;;;;2.97;1.50;;;;;;;;;;5112008;28;20082;-84
2023/06/24 08:20:21;;;;;;;1.92;1.70;;;;;;;;;;5111780;28;20062;-81
2023/06/24 08:22:48;;;;;;;2.05;1.92;;;;;;;;;;5113247;28;20068;-82
2023/06/24 08:25:16;;;;;;;1.98;1.80;;;;;;;;;;5112995;28;20047;-82
2023/06/24 08:27:46;;;;;;;2.40;1.50;;;;;;;;;;5111750;28;20396;-82
2023/06/24 08:30:18;;;;;;;3.83;1.90;;;;;;;;;;5112965;28;20511;-82
2023/06/24 08:32:45;;;;;;;2.42;1.73;;;;;;;;;;5112978;28;20051;-83
2023/06/24 08:35:12;;;;;;;4.55;1.95;;;;;;;;;;5112379;28;20503;-84
2023/06/24 08:37:40;;;;;;;4.00;1.85;;;;;;;;;;5113151;28;20047;-85
2023/06/24 08:40:07;;;;;;;4.95;1.80;;;;;;;;;;5111882;28;20090;-82
2023/06/24 08:42:34;;;;;;;4.80;1.98;;;;;;;;;;5112818;28;20051;-82
2023/06/24 08:45:02;;;;;;;2.60;1.58;;;;;;;;;;5112957;28;20044;-84
2023/06/24 08:47:29;;;;;;;1.83;1.73;;;;;;;;;;5114284;27;20067;-84
2023/06/24 08:50:03;;;;;;;1.65;1.55;;;;;;;;;;5115597;28;20051;-82
2023/06/24 08:52:32;;;;;;;1.90;1.80;;;;;;;;;;5117056;28;20047;-84
2023/06/24 08:55:02;;;;;;;3.10;1.50;;;;;;;;;;5115669;28;20044;-82
2023/06/24 08:57:29;;;;;;;2.03;1.92;;;;;;;;;;5115366;28;20040;-86
2023/06/24 08:59:57;;;;;;;1.65;1.55;;;;;;;;;;5115699;28;20054;-87
2023/06/24 09:02:24;;;;;;;2.42;1.67;;;;;;;;;;5115736;28;20043;-86
2023/06/24 09:04:52;;;;;;;3.65;1.70;;;;;;;;;;5115332;28;20430;-81
2023/06/24 09:07:29;;;;;;;5.50;1.90;;;;;;;;;;5115210;28;20054;-87
2023/06/24 09:09:56;;;;;;;3.83;1.38;;;;;;;;;;5115208;28;20078;-82
2023/06/24 09:12:28;;;;;;;1.77;1.55;;;;;;;;;;5116022;28;20044;-83
2023/06/24 09:14:55;;;;;;;6.18;1.70;;;;;;;;;;5116332;28;20047;-82
2023/06/24 09:17:22;;;;;;;1.88;1.77;;;;;;;;;;5116084;28;20097;-82
2023/06/24 09:19:51;;;;;;;1.50;1.35;;;;;;;;;;5116159;28;20048;-82
2023/06/24 09:22:18;;;;;;;2.45;1.95;;;;;;;;;;5114847;28;20043;-82
2023/06/24 09:24:47;;;;;;;2.72;1.60;;;;;;;;;;5116216;28;20078;-82
2023/06/24 09:27:25;;;;;;;3.83;1.70;;;;;;;;;;5115096;28;20449;-85
2023/06/24 09:29:52;;;;;;;1.80;1.70;;;;;;;;;;5098763;28;20079;-85
2023/06/24 09:32:20;;;;;;;4.57;1.70;;;;;;;;;;5114832;28;20449;-83
2023/06/24 09:34:48;;;;;;;2.58;1.85;;;;;;;;;;5114788;28;20562;-83
2023/06/24 09:37:23;;;;;;;2.58;2.05;;;;;;;;;;5115969;28;20071;-84
2023/06/24 09:39:50;;;;;;;2.13;1.98;;;;;;;;;;5115345;28;20403;-85
2023/06/24 09:42:22;;;;;;;1.80;1.70;;;;;;;;;;5115325;28;20129;-83
2023/06/24 09:44:54;;;;;;;3.20;1.67;;;;;;;;;;5114703;28;20104;-83
2023/06/24 09:47:24;;;;;;;1.80;1.60;;;;;;;;;;5115539;28;20044;-82
2023/06/24 09:49:52;;;;;;;4.88;1.85;;;;;;;;;;5114618;28;20487;-84
2023/06/24 09:52:20;;;;;;;2.40;1.70;;;;;;;;;;5115757;28;20392;-86
2023/06/24 09:54:51;;;;;;;2.50;1.50;;;;;;;;;;5114704;28;20048;-83
2023/06/24 09:57:22;;;;;;;1.98;1.80;;;;;;;;;;5115704;28;20499;-85
2023/06/24 09:59:50;;;;;;;4.22;2.13;;;;;;;;;;5114459;28;20078;-85
2023/06/24 10:02:18;;;;;;;2.85;1.88;;;;;;;;;;5114879;28;20484;-84
2023/06/24 10:04:47;;;;;;;1.48;1.38;;;;;;;;;;5114637;28;20079;-85
2023/06/24 10:07:14;;;;;;;2.42;2.03;;;;;;;;;;5114451;28;20047;-82
2023/06/24 10:09:43;;;;;;;2.15;1.80;;;;;;;;;;5115486;28;20048;-84
2023/06/24 10:12:10;;;;;;;3.90;1.77;;;;;;;;;;5114574;28;20073;-83
2023/06/24 10:14:38;;;;;;;1.50;1.40;;;;;;;;;;5114367;28;20450;-83
2023/06/24 10:17:05;;;;;;;1.70;1.60;;;;;;;;;;5114105;28;20044;-83
2023/06/24 10:19:39;;;;;;;2.80;1.60;;;;;;;;;;5114918;28;20472;-87
2023/06/24 10:22:12;;;;;;;2.10;1.85;;;;;;;;;;5114533;28;20070;-87
2023/06/24 10:24:41;;;;;;;3.97;1.70;;;;;;;;;;5114075;28;20479;-82
2023/06/24 10:27:14;;;;;;;1.85;1.77;;;;;;;;;;5114157;28;20059;-86
2023/06/24 10:29:45;;;;;;;1.90;1.80;;;;;;;;;;5114802;28;20138;-83
2023/06/24 10:32:13;;;;;;;1.85;1.75;;;;;;;;;;5114952;28;20051;-84
2023/06/24 10:34:41;;;;;;;3.00;1.80;;;;;;;;;;5114750;28;20054;-82
2023/06/24 10:37:09;;;;;;;1.50;1.50;;;;;;;;;;5114664;28;20124;-87
2023/06/24 10:39:37;;;;;;;3.63;1.52;;;;;;;;;;5113425;28;20442;-82
2023/06/24 10:42:24;;;;;;;3.65;1.48;;;;;;;;;;5112549;28;20043;-83
2023/06/24 10:44:51;;;;;;;2.13;2.03;;;;;;;;;;5111726;28;20052;-86
2023/06/24 10:47:19;;;;;;;2.22;1.40;;;;;;;;;;5111301;28;20044;-83
2023/06/24 10:49:46;;;;;;;2.15;1.77;;;;;;;;;;5112764;28;20044;-84
2023/06/24 10:52:14;;;;;;;1.80;1.70;;;;;;;;;;5111182;28;20557;-82
2023/06/24 10:54:41;;;;;;;1.85;1.30;;;;;;;;;;5112398;28;20052;-84
2023/06/24 10:57:12;;;;;;;2.85;1.42;;;;;;;;;;5112389;28;20052;-83
2023/06/24 10:59:43;;;;;;;1.50;1.40;;;;;;;;;;5113569;28;20051;-83
2023/06/24 11:02:13;;;;;;;1.70;1.60;;;;;;;;;;5112970;28;20043;-84
2023/06/24 11:04:51;;;;;;;2.05;1.85;;;;;;;;;;5113548;28;20051;-85
2023/06/24 11:07:19;;;;;;;1.80;1.70;;;;;;;;;;5113362;28;20407;-81
2023/06/24 11:10:06;;;;;;;1.77;1.67;;;;;;;;;;5112518;28;20054;-85
2023/06/24 11:12:38;;;;;;;2.83;2.00;;;;;;;;;;5113201;28;20457;-81
2023/06/24 11:15:09;;;;;;;2.25;2.05;;;;;;;;;;5112662;28;20451;-82
2023/06/24 11:17:37;;;;;;;2.80;1.90;;;;;;;;;;5113976;28;20487;-82
2023/06/24 11:20:09;;;;;;;1.67;1.58;;;;;;;;;;5113151;28;20130;-82
2023/06/24 11:22:36;;;;;;;1.90;1.80;;;;;;;;;;5113851;28;20043;-83
2023/06/24 11:25:03;;;;;;;2.92;1.75;;;;;;;;;;5113216;28;20055;-85
2023/06/24 11:27:31;;;;;;;1.80;1.70;;;;;;;;;;5112733;28;20043;-86
2023/06/24 11:30:01;;;;;;;2.00;1.88;;;;;;;;;;5113038;28;20415;-84
2023/06/24 11:32:36;;;;;;;1.88;1.77;;;;;;;;;;5113575;28;20130;-81
2023/06/24 11:35:08;;;;;;;1.98;1.77;;;;;;;;;;5111368;28;20048;-84
2023/06/24 11:37:35;;;;;;;1.92;1.73;;;;;;;;;;5112397;28;20054;-81
2023/06/24 11:40:06;;;;;;;2.40;1.80;;;;;;;;;;5113830;28;20051;-82
2023/06/24 11:42:38;;;;;;;7.63;1.83;;;;;;;;;;5112505;28;20108;-82
2023/06/24 11:45:09;;;;;;;5.90;1.98;;;;;;;;;;5112662;28;20048;-81
2023/06/24 11:47:38;;;;;;;;;;;;;;;;;;5112372;28;20083;-80
2023/06/24 11:50:06;;;;;;;2.03;1.92;;;;;;;;;;5112853;28;19919;-82
2023/06/24 11:52:40;;;;;;;2.60;1.77;;;;;;;;;;5111638;28;20083;-80
2023/06/24 11:55:18;;;;;;;3.30;1.70;;;;;;;;;;5111662;28;20052;-81
2023/06/24 11:57:50;;;;;;;4.43;2.22;;;;;;;;;;5111928;28;20044;-81
2023/06/24 12:00:17;;;;;;;1.77;1.58;;;;;;;;;;5112091;28;20043;-81
2023/06/24 12:02:45;;;;;;;2.15;2.05;;;;;;;;;;5111894;28;20039;-81
2023/06/24 12:05:12;;;;;;;2.90;2.30;;;;;;;;;;5111598;28;20048;-80
2023/06/24 12:07:40;;;;;;;2.35;2.13;;;;;;;;;;5111874;28;20044;-83
2023/06/24 12:10:08;;;;;;;1.95;1.85;;;;;;;;;;5111797;28;20491;-82
2023/06/24 12:12:35;;;;;;;2.28;2.08;;;;;;;;;;5111526;28;20047;-82
2023/06/24 12:15:03;;;;;;;1.92;1.83;;;;;;;;;;5111593;28;20047;-83
2023/06/24 12:17:31;;;;;;;2.65;2.00;;;;;;;;;;5111833;28;20090;-83
2023/06/24 12:19:59;;;;;;;2.10;2.00;;;;;;;;;;5113342;28;20060;-83
2023/06/24 12:22:27;;;;;;;2.10;2.00;;;;;;;;;;5115583;28;20044;-84
2023/06/24 12:24:54;;;;;;;2.70;1.80;;;;;;;;;;5116973;28;20075;-82
2023/06/24 12:27:21;;;;;;;1.88;1.77;;;;;;;;;;5115543;28;20097;-81
2023/06/24 12:29:48;;;;;;;3.10;1.80;;;;;;;;;;5116544;28;20389;-84
2023/06/24 12:32:16;;;;;;;2.70;2.10;;;;;;;;;;5115601;28;20475;-84
2023/06/24 12:34:43;;;;;;;1.95;1.85;;;;;;;;;;5115892;28;20048;-81
2023/06/24 12:37:10;;;;;;;4.40;2.13;;;;;;;;;;5116802;28;20385;-81
2023/06/24 12:39:37;;;;;;;2.53;1.80;;;;;;;;;;5115505;28;20044;-87
2023/06/24 12:42:05;;;;;;;2.53;1.83;;;;;;;;;;5115765;28;20048;-84
2023/06/24 12:44:33;;;;;;;2.28;2.08;;;;;;;;;;5115867;28;20047;-86
2023/06/24 12:47:00;;;;;;;4.07;2.28;;;;;;;;;;5115422;28;20044;-82
2023/06/24 12:49:27;;;;;;;2.58;1.80;;;;;;;;;;5114919;28;20071;-82
2023/06/24 12:51:54;;;;;;;3.03;1.90;;;;;;;;;;5114214;28;20082;-82
2023/06/24 12:54:22;;;;;;;2.17;2.08;;;;;;;;;;5114681;28;20071;-81
2023/06/24 12:56:49;;;;;;;2.22;1.90;;;;;;;;;;5114297;28;20133;-81
2023/06/24 12:59:22;;;;;;;2.30;2.10;;;;;;;;;;5114294;28;20119;-82
2023/06/24 13:01:50;;;;;;;2.20;2.00;;;;;;;;;;5114487;28;20083;-82
2023/06/24 13:04:19;;;;;;;2.40;2.20;;;;;;;;;;5115357;28;20039;-82
2023/06/24 13:06:49;;;;;;;2.50;2.30;;;;;;;;;;5115795;28;20047;-80
2023/06/24 13:09:16;;;;;;;2.30;2.17;;;;;;;;;;5113713;28;20487;-81
2023/06/24 13:11:43;;;;;;;2.25;2.08;;;;;;;;;;5115458;27;20073;-83
2023/06/24 13:14:11;;;;;;;3.72;2.10;;;;;;;;;;5114384;28;20039;-83
2023/06/24 13:16:38;;;;;;;2.15;1.95;;;;;;;;;;5114011;28;20048;-81
2023/06/24 13:19:06;;;;;;;3.70;2.20;;;;;;;;;;5114620;28;20090;-84
2023/06/24 13:21:33;;;;;;;2.70;2.25;;;;;;;;;;5114865;28;20071;-84
2023/06/24 13:24:00;;;;;;;2.13;2.03;;;;;;;;;;5116078;28;20081;-82
2023/06/24 13:26:28;;;;;;;2.05;1.95;;;;;;;;;;5114489;28;20052;-83
2023/06/24 13:28:55;;;;;;;2.35;2.20;;;;;;;;;;5114593;28;20047;-81
2023/06/24 13:31:22;;;;;;;1.88;1.70;;;;;;;;;;5115251;28;20100;-81
2023/06/24 13:33:50;;;;;;;2.40;2.30;;;;;;;;;;5114843;27;20075;-82
2023/06/24 13:36:31;;;;;;;2.38;2.20;;;;;;;;;;5115468;28;20043;-82
2023/06/24 13:38:58;;;;;;;2.10;2.00;;;;;;;;;;5114254;28;20075;-84
2023/06/24 13:41:29;;;;;;;2.00;1.90;;;;;;;;;;5115487;28;20051;-84
2023/06/24 13:43:57;;;;;;;2.40;2.20;;;;;;;;;;5114538;28;20052;-82
2023/06/24 13:46:24;;;;;;;2.35;2.13;;;;;;;;;;5115090;28;20051;-82
2023/06/24 13:48:51;;;;;;;2.50;2.30;;;;;;;;;;5115299;28;20134;-83
2023/06/24 13:51:22;;;;;;;3.67;2.47;;;;;;;;;;5113968;28;20077;-83
2023/06/24 13:53:54;;;;;;;2.25;1.98;;;;;;;;;;5115364;28;20048;-83
2023/06/24 13:56:23;;;;;;;3.70;2.50;;;;;;;;;;5115453;28;20048;-85
2023/06/24 13:58:51;;;;;;;3.30;2.22;;;;;;;;;;5114051;28;20044;-82
2023/06/24 14:01:18;;;;;;;3.25;2.38;;;;;;;;;;5113617;28;20092;-85
2023/06/24 14:03:46;;;;;;;2.78;2.58;;;;;;;;;;5113605;28;20407;-82
2023/06/24 14:06:17;;;;;;;2.25;2.13;;;;;;;;;;5113797;28;20492;-83
2023/06/24 14:08:45;;;;;;;2.10;2.00;;;;;;;;;;5113406;28;20089;-81
2023/06/24 14:11:12;;;;;;;2.50;2.30;;;;;;;;;;5113531;28;20075;-83
2023/06/24 14:13:40;;;;;;;2.25;2.05;;;;;;;;;;5114948;28;20101;-84
2023/06/24 14:16:07;;;;;;;2.05;1.85;;;;;;;;;;5113611;28;20048;-83
2023/06/24 14:18:38;;;;;;;2.17;2.08;;;;;;;;;;5114712;28;20056;-82
2023/06/24 14:21:06;;;;;;;2.10;1.98;;;;;;;;;;5114425;28;20048;-81
2023/06/24 14:23:34;;;;;;;2.35;2.25;;;;;;;;;;5114836;27;20052;-84
2023/06/24 14:26:02;;;;;;;3.72;2.03;;;;;;;;;;5115103;28;20446;-82
2023/06/24 14:28:29;;;;;;;2.08;1.90;;;;;;;;;;5113144;28;20058;-82
2023/06/24 14:30:56;;;;;;;1.98;1.88;;;;;;;;;;5113869;28;20388;-81
2023/06/24 14:33:24;;;;;;;2.13;2.00;;;;;;;;;;5113959;28;20075;-81
2023/06/24 14:35:51;;;;;;;2.10;2.00;;;;;;;;;;5114188;28;20096;-82
2023/06/24 14:38:18;;;;;;;2.20;2.00;;;;;;;;;;5113128;28;20089;-81
2023/06/24 14:40:46;;;;;;;4.07;2.17;;;;;;;;;;5114207;28;20050;-81